sensor_id;sensor_type;location;lat;lon;timestamp;P1;durP1;ratioP1;P2;durP2;ratioP2
45007;SDS011;30743;52.008;5.644;2023-02-20T00:01:55;9.57;;;6.43;;
45007;SDS011;30743;52.008;5.644;2023-02-20T00:04:21;9.88;;;7.45;;
45007;SDS011;30743;52.008;5.644;2023-02-20T00:06:47;11.52;;;7.07;;
45007;SDS011;30743;52.008;5.644;2023-02-20T00:09:12;10.82;;;7.53;;
45007;SDS011;30743;52.008;5.644;2023-02-20T00:11:38;14.90;;;8.95;;
45007;SDS011;30743;52.008;5.644;2023-02-20T00:14:03;14.57;;;8.82;;
45007;SDS011;30743;52.008;5.644;2023-02-20T00:16:29;14.32;;;8.18;;
45007;SDS011;30743;52.008;5.644;2023-02-20T00:18:55;12.25;;;9.38;;
45007;SDS011;30743;52.008;5.644;2023-02-20T00:21:21;14.35;;;9.80;;
45007;SDS011;30743;52.008;5.644;2023-02-20T00:23:47;13.73;;;9.65;;
45007;SDS011;30743;52.008;5.644;2023-02-20T00:26:13;17.05;;;10.40;;
45007;SDS011;30743;52.008;5.644;2023-02-20T00:28:39;16.50;;;10.65;;
45007;SDS011;30743;52.008;5.644;2023-02-20T00:31:06;15.40;;;10.45;;
45007;SDS011;30743;52.008;5.644;2023-02-20T00:33:33;16.00;;;10.75;;
45007;SDS011;30743;52.008;5.644;2023-02-20T00:35:58;15.27;;;11.02;;
45007;SDS011;30743;52.008;5.644;2023-02-20T00:38:24;13.98;;;9.85;;
45007;SDS011;30743;52.008;5.644;2023-02-20T00:40:49;15.13;;;10.50;;
45007;SDS011;30743;52.008;5.644;2023-02-20T00:43:15;16.70;;;10.50;;
45007;SDS011;30743;52.008;5.644;2023-02-20T00:45:41;15.57;;;10.65;;
45007;SDS011;30743;52.008;5.644;2023-02-20T00:48:06;16.10;;;10.35;;
45007;SDS011;30743;52.008;5.644;2023-02-20T00:50:32;12.93;;;9.77;;
45007;SDS011;30743;52.008;5.644;2023-02-20T00:52:57;14.23;;;10.30;;
45007;SDS011;30743;52.008;5.644;2023-02-20T00:55:23;16.35;;;10.52;;
45007;SDS011;30743;52.008;5.644;2023-02-20T00:57:49;15.85;;;10.20;;
45007;SDS011;30743;52.008;5.644;2023-02-20T01:00:22;15.45;;;9.88;;
45007;SDS011;30743;52.008;5.644;2023-02-20T01:02:50;15.00;;;9.88;;
45007;SDS011;30743;52.008;5.644;2023-02-20T01:05:16;14.77;;;9.80;;
45007;SDS011;30743;52.008;5.644;2023-02-20T01:07:42;15.15;;;9.77;;
45007;SDS011;30743;52.008;5.644;2023-02-20T01:10:08;15.80;;;10.65;;
45007;SDS011;30743;52.008;5.644;2023-02-20T01:12:37;14.68;;;9.65;;
45007;SDS011;30743;52.008;5.644;2023-02-20T01:15:04;12.48;;;9.75;;
45007;SDS011;30743;52.008;5.644;2023-02-20T01:17:31;17.52;;;9.70;;
45007;SDS011;30743;52.008;5.644;2023-02-20T01:19:56;15.02;;;10.13;;
45007;SDS011;30743;52.008;5.644;2023-02-20T01:22:24;15.25;;;9.88;;
45007;SDS011;30743;52.008;5.644;2023-02-20T01:24:51;16.48;;;9.80;;
45007;SDS011;30743;52.008;5.644;2023-02-20T01:27:17;16.10;;;9.38;;
45007;SDS011;30743;52.008;5.644;2023-02-20T01:29:42;15.23;;;9.77;;
45007;SDS011;30743;52.008;5.644;2023-02-20T01:32:10;13.75;;;8.98;;
45007;SDS011;30743;52.008;5.644;2023-02-20T01:34:36;13.55;;;9.25;;
45007;SDS011;30743;52.008;5.644;2023-02-20T01:37:02;12.35;;;8.88;;
45007;SDS011;30743;52.008;5.644;2023-02-20T01:39:28;14.40;;;8.48;;
45007;SDS011;30743;52.008;5.644;2023-02-20T01:41:59;11.35;;;8.43;;
45007;SDS011;30743;52.008;5.644;2023-02-20T01:44:30;12.95;;;8.10;;
45007;SDS011;30743;52.008;5.644;2023-02-20T01:46:58;14.48;;;8.57;;
45007;SDS011;30743;52.008;5.644;2023-02-20T01:49:31;13.15;;;8.50;;
45007;SDS011;30743;52.008;5.644;2023-02-20T01:52:34;13.98;;;7.90;;
45007;SDS011;30743;52.008;5.644;2023-02-20T01:55:01;12.73;;;8.30;;
45007;SDS011;30743;52.008;5.644;2023-02-20T01:57:33;14.50;;;8.32;;
45007;SDS011;30743;52.008;5.644;2023-02-20T02:00:07;13.07;;;8.13;;
45007;SDS011;30743;52.008;5.644;2023-02-20T02:02:36;15.15;;;8.23;;
45007;SDS011;30743;52.008;5.644;2023-02-20T02:05:06;12.82;;;8.38;;
45007;SDS011;30743;52.008;5.644;2023-02-20T02:07:33;15.10;;;8.68;;
45007;SDS011;30743;52.008;5.644;2023-02-20T02:10:03;16.83;;;9.48;;
45007;SDS011;30743;52.008;5.644;2023-02-20T02:12:32;13.68;;;8.55;;
45007;SDS011;30743;52.008;5.644;2023-02-20T02:14:59;14.57;;;8.20;;
45007;SDS011;30743;52.008;5.644;2023-02-20T02:26:11;14.95;;;9.23;;
45007;SDS011;30743;52.008;5.644;2023-02-20T02:28:59;15.77;;;9.65;;
45007;SDS011;30743;52.008;5.644;2023-02-20T02:37:23;19.38;;;10.75;;
45007;SDS011;30743;52.008;5.644;2023-02-20T02:42:40;18.45;;;11.15;;
45007;SDS011;30743;52.008;5.644;2023-02-20T02:45:17;20.73;;;12.00;;
45007;SDS011;30743;52.008;5.644;2023-02-20T02:47:54;20.50;;;11.57;;
45007;SDS011;30743;52.008;5.644;2023-02-20T02:50:28;23.73;;;12.07;;
45007;SDS011;30743;52.008;5.644;2023-02-20T02:53:02;22.55;;;14.63;;
45007;SDS011;30743;52.008;5.644;2023-02-20T02:55:31;23.50;;;14.18;;
45007;SDS011;30743;52.008;5.644;2023-02-20T02:58:00;23.42;;;14.05;;
45007;SDS011;30743;52.008;5.644;2023-02-20T03:00:35;27.05;;;14.95;;
45007;SDS011;30743;52.008;5.644;2023-02-20T03:03:20;30.13;;;15.35;;
45007;SDS011;30743;52.008;5.644;2023-02-20T03:11:13;29.08;;;16.60;;
45007;SDS011;30743;52.008;5.644;2023-02-20T03:13:58;28.67;;;16.95;;
45007;SDS011;30743;52.008;5.644;2023-02-20T03:19:41;28.92;;;17.70;;
45007;SDS011;30743;52.008;5.644;2023-02-20T03:22:15;29.30;;;17.60;;
45007;SDS011;30743;52.008;5.644;2023-02-20T03:24:45;26.25;;;16.90;;
45007;SDS011;30743;52.008;5.644;2023-02-20T03:27:34;30.23;;;17.90;;
45007;SDS011;30743;52.008;5.644;2023-02-20T03:30:09;28.33;;;17.90;;
45007;SDS011;30743;52.008;5.644;2023-02-20T03:32:44;32.38;;;16.67;;
45007;SDS011;30743;52.008;5.644;2023-02-20T03:35:33;28.65;;;18.20;;
45007;SDS011;30743;52.008;5.644;2023-02-20T03:38:20;28.85;;;17.88;;
45007;SDS011;30743;52.008;5.644;2023-02-20T03:41:07;30.90;;;18.13;;
45007;SDS011;30743;52.008;5.644;2023-02-20T03:43:53;31.63;;;17.65;;
45007;SDS011;30743;52.008;5.644;2023-02-20T03:46:21;28.48;;;17.20;;
45007;SDS011;30743;52.008;5.644;2023-02-20T03:48:52;24.33;;;17.20;;
45007;SDS011;30743;52.008;5.644;2023-02-20T03:51:28;30.98;;;17.45;;
45007;SDS011;30743;52.008;5.644;2023-02-20T03:53:53;29.95;;;17.73;;
45007;SDS011;30743;52.008;5.644;2023-02-20T03:56:24;30.33;;;17.80;;
45007;SDS011;30743;52.008;5.644;2023-02-20T03:58:55;30.80;;;17.73;;
45007;SDS011;30743;52.008;5.644;2023-02-20T04:01:25;25.30;;;16.90;;
45007;SDS011;30743;52.008;5.644;2023-02-20T04:03:51;32.15;;;18.17;;
45007;SDS011;30743;52.008;5.644;2023-02-20T04:06:20;36.60;;;18.85;;
45007;SDS011;30743;52.008;5.644;2023-02-20T04:08:59;34.75;;;17.83;;
45007;SDS011;30743;52.008;5.644;2023-02-20T04:14:17;28.42;;;16.85;;
45007;SDS011;30743;52.008;5.644;2023-02-20T04:16:49;32.47;;;18.17;;
45007;SDS011;30743;52.008;5.644;2023-02-20T04:19:17;28.38;;;16.55;;
45007;SDS011;30743;52.008;5.644;2023-02-20T04:21:48;30.70;;;17.75;;
45007;SDS011;30743;52.008;5.644;2023-02-20T04:24:20;28.77;;;17.75;;
45007;SDS011;30743;52.008;5.644;2023-02-20T04:26:53;29.73;;;17.73;;
45007;SDS011;30743;52.008;5.644;2023-02-20T04:29:19;31.67;;;18.20;;
45007;SDS011;30743;52.008;5.644;2023-02-20T04:31:45;29.95;;;17.58;;
45007;SDS011;30743;52.008;5.644;2023-02-20T04:34:10;30.23;;;17.35;;
45007;SDS011;30743;52.008;5.644;2023-02-20T04:36:36;30.13;;;16.80;;
45007;SDS011;30743;52.008;5.644;2023-02-20T04:39:01;30.05;;;16.25;;
45007;SDS011;30743;52.008;5.644;2023-02-20T04:41:27;27.38;;;16.77;;
45007;SDS011;30743;52.008;5.644;2023-02-20T04:43:53;31.52;;;16.50;;
45007;SDS011;30743;52.008;5.644;2023-02-20T04:46:38;27.20;;;18.00;;
45007;SDS011;30743;52.008;5.644;2023-02-20T04:49:04;27.17;;;16.77;;
45007;SDS011;30743;52.008;5.644;2023-02-20T04:51:29;31.55;;;17.55;;
45007;SDS011;30743;52.008;5.644;2023-02-20T04:53:55;30.58;;;16.52;;
45007;SDS011;30743;52.008;5.644;2023-02-20T04:56:21;29.25;;;17.10;;
45007;SDS011;30743;52.008;5.644;2023-02-20T04:58:46;30.67;;;15.93;;
45007;SDS011;30743;52.008;5.644;2023-02-20T05:01:13;31.08;;;15.75;;
45007;SDS011;30743;52.008;5.644;2023-02-20T05:03:39;30.33;;;15.90;;
45007;SDS011;30743;52.008;5.644;2023-02-20T05:06:05;29.77;;;16.33;;
45007;SDS011;30743;52.008;5.644;2023-02-20T05:08:31;32.97;;;15.75;;
45007;SDS011;30743;52.008;5.644;2023-02-20T05:10:56;32.13;;;15.90;;
45007;SDS011;30743;52.008;5.644;2023-02-20T05:13:22;31.67;;;17.67;;
45007;SDS011;30743;52.008;5.644;2023-02-20T05:15:47;30.45;;;15.27;;
45007;SDS011;30743;52.008;5.644;2023-02-20T05:18:13;35.05;;;16.70;;
45007;SDS011;30743;52.008;5.644;2023-02-20T05:20:38;32.33;;;15.57;;
45007;SDS011;30743;52.008;5.644;2023-02-20T05:23:22;25.73;;;14.25;;
45007;SDS011;30743;52.008;5.644;2023-02-20T05:25:48;29.33;;;15.70;;
45007;SDS011;30743;52.008;5.644;2023-02-20T05:28:13;26.67;;;15.50;;
45007;SDS011;30743;52.008;5.644;2023-02-20T05:30:39;25.15;;;14.80;;
45007;SDS011;30743;52.008;5.644;2023-02-20T05:33:04;24.75;;;13.65;;
45007;SDS011;30743;52.008;5.644;2023-02-20T05:35:30;25.48;;;14.77;;
45007;SDS011;30743;52.008;5.644;2023-02-20T05:37:55;27.40;;;14.13;;
45007;SDS011;30743;52.008;5.644;2023-02-20T05:40:21;26.05;;;13.75;;
45007;SDS011;30743;52.008;5.644;2023-02-20T05:42:46;34.95;;;14.70;;
45007;SDS011;30743;52.008;5.644;2023-02-20T05:45:13;28.67;;;12.63;;
45007;SDS011;30743;52.008;5.644;2023-02-20T05:47:39;26.58;;;13.18;;
45007;SDS011;30743;52.008;5.644;2023-02-20T05:50:04;27.98;;;12.80;;
45007;SDS011;30743;52.008;5.644;2023-02-20T05:52:30;24.05;;;13.07;;
45007;SDS011;30743;52.008;5.644;2023-02-20T05:54:56;26.15;;;12.40;;
45007;SDS011;30743;52.008;5.644;2023-02-20T05:57:21;22.05;;;12.27;;
45007;SDS011;30743;52.008;5.644;2023-02-20T05:59:47;24.70;;;12.65;;
45007;SDS011;30743;52.008;5.644;2023-02-20T06:02:12;19.58;;;12.30;;
45007;SDS011;30743;52.008;5.644;2023-02-20T06:04:38;25.10;;;12.75;;
45007;SDS011;30743;52.008;5.644;2023-02-20T06:07:03;18.42;;;11.27;;
45007;SDS011;30743;52.008;5.644;2023-02-20T06:09:31;28.05;;;11.77;;
45007;SDS011;30743;52.008;5.644;2023-02-20T06:11:59;26.55;;;12.27;;
45007;SDS011;30743;52.008;5.644;2023-02-20T06:14:25;23.60;;;11.60;;
45007;SDS011;30743;52.008;5.644;2023-02-20T06:16:51;23.55;;;11.40;;
45007;SDS011;30743;52.008;5.644;2023-02-20T06:19:21;22.23;;;11.55;;
45007;SDS011;30743;52.008;5.644;2023-02-20T06:21:51;22.83;;;11.70;;
45007;SDS011;30743;52.008;5.644;2023-02-20T06:24:17;29.67;;;12.32;;
45007;SDS011;30743;52.008;5.644;2023-02-20T06:26:44;21.17;;;12.10;;
45007;SDS011;30743;52.008;5.644;2023-02-20T06:29:10;20.45;;;12.13;;
45007;SDS011;30743;52.008;5.644;2023-02-20T06:31:38;19.27;;;11.95;;
45007;SDS011;30743;52.008;5.644;2023-02-20T06:34:03;20.35;;;9.88;;
45007;SDS011;30743;52.008;5.644;2023-02-20T06:36:31;20.50;;;10.80;;
45007;SDS011;30743;52.008;5.644;2023-02-20T06:39:00;20.50;;;9.40;;
45007;SDS011;30743;52.008;5.644;2023-02-20T06:41:25;16.00;;;8.75;;
45007;SDS011;30743;52.008;5.644;2023-02-20T06:43:51;25.10;;;10.52;;
45007;SDS011;30743;52.008;5.644;2023-02-20T06:46:17;15.63;;;8.13;;
45007;SDS011;30743;52.008;5.644;2023-02-20T06:48:46;16.08;;;8.10;;
45007;SDS011;30743;52.008;5.644;2023-02-20T06:51:21;17.17;;;8.38;;
45007;SDS011;30743;52.008;5.644;2023-02-20T06:53:49;15.70;;;8.27;;
45007;SDS011;30743;52.008;5.644;2023-02-20T06:56:15;13.57;;;7.88;;
45007;SDS011;30743;52.008;5.644;2023-02-20T06:58:47;17.52;;;8.20;;
45007;SDS011;30743;52.008;5.644;2023-02-20T07:01:15;16.92;;;8.52;;
45007;SDS011;30743;52.008;5.644;2023-02-20T07:03:42;19.92;;;8.05;;
45007;SDS011;30743;52.008;5.644;2023-02-20T07:06:11;21.58;;;8.20;;
45007;SDS011;30743;52.008;5.644;2023-02-20T07:08:36;21.02;;;7.47;;
45007;SDS011;30743;52.008;5.644;2023-02-20T07:11:02;16.48;;;6.47;;
45007;SDS011;30743;52.008;5.644;2023-02-20T07:13:28;15.82;;;7.10;;
45007;SDS011;30743;52.008;5.644;2023-02-20T07:15:53;16.83;;;7.60;;
45007;SDS011;30743;52.008;5.644;2023-02-20T07:18:19;21.90;;;7.90;;
45007;SDS011;30743;52.008;5.644;2023-02-20T07:20:48;15.32;;;7.60;;
45007;SDS011;30743;52.008;5.644;2023-02-20T07:23:20;17.40;;;7.65;;
45007;SDS011;30743;52.008;5.644;2023-02-20T07:25:46;16.25;;;6.72;;
45007;SDS011;30743;52.008;5.644;2023-02-20T07:28:13;17.00;;;7.53;;
45007;SDS011;30743;52.008;5.644;2023-02-20T07:30:39;12.48;;;6.82;;
45007;SDS011;30743;52.008;5.644;2023-02-20T07:33:05;15.82;;;7.63;;
45007;SDS011;30743;52.008;5.644;2023-02-20T07:35:31;17.20;;;6.82;;
45007;SDS011;30743;52.008;5.644;2023-02-20T07:37:56;12.07;;;7.22;;
45007;SDS011;30743;52.008;5.644;2023-02-20T07:40:22;19.83;;;7.43;;
45007;SDS011;30743;52.008;5.644;2023-02-20T07:42:47;22.27;;;8.05;;
45007;SDS011;30743;52.008;5.644;2023-02-20T07:45:13;13.35;;;7.00;;
45007;SDS011;30743;52.008;5.644;2023-02-20T07:47:38;16.30;;;7.05;;
45007;SDS011;30743;52.008;5.644;2023-02-20T07:50:04;19.95;;;8.27;;
45007;SDS011;30743;52.008;5.644;2023-02-20T07:52:30;18.77;;;8.52;;
45007;SDS011;30743;52.008;5.644;2023-02-20T07:54:55;20.95;;;8.50;;
45007;SDS011;30743;52.008;5.644;2023-02-20T07:57:21;20.13;;;8.05;;
45007;SDS011;30743;52.008;5.644;2023-02-20T07:59:46;17.13;;;8.40;;
45007;SDS011;30743;52.008;5.644;2023-02-20T08:02:12;19.88;;;8.30;;
45007;SDS011;30743;52.008;5.644;2023-02-20T08:04:37;19.90;;;9.55;;
45007;SDS011;30743;52.008;5.644;2023-02-20T08:07:03;17.30;;;8.35;;
45007;SDS011;30743;52.008;5.644;2023-02-20T08:09:30;19.08;;;9.30;;
45007;SDS011;30743;52.008;5.644;2023-02-20T08:11:56;22.48;;;8.93;;
45007;SDS011;30743;52.008;5.644;2023-02-20T08:14:22;17.13;;;8.48;;
45007;SDS011;30743;52.008;5.644;2023-02-20T08:16:47;20.02;;;9.75;;
45007;SDS011;30743;52.008;5.644;2023-02-20T08:19:13;21.52;;;9.23;;
45007;SDS011;30743;52.008;5.644;2023-02-20T08:21:38;22.65;;;8.40;;
45007;SDS011;30743;52.008;5.644;2023-02-20T08:24:04;20.25;;;9.65;;
45007;SDS011;30743;52.008;5.644;2023-02-20T08:26:30;21.83;;;9.70;;
45007;SDS011;30743;52.008;5.644;2023-02-20T08:28:58;20.83;;;9.85;;
45007;SDS011;30743;52.008;5.644;2023-02-20T08:31:24;18.27;;;9.50;;
45007;SDS011;30743;52.008;5.644;2023-02-20T08:33:51;23.35;;;10.20;;
45007;SDS011;30743;52.008;5.644;2023-02-20T08:36:16;19.35;;;9.52;;
45007;SDS011;30743;52.008;5.644;2023-02-20T08:38:43;20.88;;;10.18;;
45007;SDS011;30743;52.008;5.644;2023-02-20T08:41:09;16.85;;;9.20;;
45007;SDS011;30743;52.008;5.644;2023-02-20T08:43:36;20.52;;;10.30;;
45007;SDS011;30743;52.008;5.644;2023-02-20T08:46:03;14.02;;;9.15;;
45007;SDS011;30743;52.008;5.644;2023-02-20T08:48:29;15.70;;;7.68;;
45007;SDS011;30743;52.008;5.644;2023-02-20T08:50:55;18.45;;;9.30;;
45007;SDS011;30743;52.008;5.644;2023-02-20T08:53:20;20.00;;;7.63;;
45007;SDS011;30743;52.008;5.644;2023-02-20T08:55:46;18.02;;;7.93;;
45007;SDS011;30743;52.008;5.644;2023-02-20T08:58:12;12.00;;;7.47;;
45007;SDS011;30743;52.008;5.644;2023-02-20T09:00:37;13.30;;;7.50;;
45007;SDS011;30743;52.008;5.644;2023-02-20T09:03:03;14.18;;;7.15;;
45007;SDS011;30743;52.008;5.644;2023-02-20T09:05:32;16.13;;;7.18;;
45007;SDS011;30743;52.008;5.644;2023-02-20T09:07:58;14.15;;;7.78;;
45007;SDS011;30743;52.008;5.644;2023-02-20T09:10:24;19.13;;;7.90;;
45007;SDS011;30743;52.008;5.644;2023-02-20T09:12:50;16.02;;;7.60;;
45007;SDS011;30743;52.008;5.644;2023-02-20T09:15:17;14.43;;;6.78;;
45007;SDS011;30743;52.008;5.644;2023-02-20T09:17:43;18.15;;;7.20;;
45007;SDS011;30743;52.008;5.644;2023-02-20T09:20:12;13.07;;;6.68;;
45007;SDS011;30743;52.008;5.644;2023-02-20T09:22:39;17.00;;;6.82;;
45007;SDS011;30743;52.008;5.644;2023-02-20T09:25:05;14.00;;;6.18;;
45007;SDS011;30743;52.008;5.644;2023-02-20T09:27:30;15.55;;;5.97;;
45007;SDS011;30743;52.008;5.644;2023-02-20T09:29:56;14.93;;;5.53;;
45007;SDS011;30743;52.008;5.644;2023-02-20T09:32:22;13.73;;;5.25;;
45007;SDS011;30743;52.008;5.644;2023-02-20T09:34:47;9.00;;;4.78;;
45007;SDS011;30743;52.008;5.644;2023-02-20T09:37:13;14.45;;;5.18;;
45007;SDS011;30743;52.008;5.644;2023-02-20T09:39:38;13.43;;;4.95;;
45007;SDS011;30743;52.008;5.644;2023-02-20T09:44:54;15.68;;;5.40;;
45007;SDS011;30743;52.008;5.644;2023-02-20T09:55:47;13.60;;;5.55;;
45007;SDS011;30743;52.008;5.644;2023-02-20T09:58:19;16.92;;;6.00;;
45007;SDS011;30743;52.008;5.644;2023-02-20T10:00:49;18.70;;;5.57;;
45007;SDS011;30743;52.008;5.644;2023-02-20T10:03:23;12.85;;;5.50;;
45007;SDS011;30743;52.008;5.644;2023-02-20T10:05:59;18.52;;;5.55;;
45007;SDS011;30743;52.008;5.644;2023-02-20T10:08:27;13.70;;;5.68;;
45007;SDS011;30743;52.008;5.644;2023-02-20T10:10:53;13.70;;;5.25;;
45007;SDS011;30743;52.008;5.644;2023-02-20T10:13:43;18.80;;;6.43;;
45007;SDS011;30743;52.008;5.644;2023-02-20T10:24:35;12.98;;;5.28;;
45007;SDS011;30743;52.008;5.644;2023-02-20T10:30:02;12.95;;;5.88;;
45007;SDS011;30743;52.008;5.644;2023-02-20T10:32:39;15.10;;;6.35;;
45007;SDS011;30743;52.008;5.644;2023-02-20T10:35:17;10.30;;;5.45;;
45007;SDS011;30743;52.008;5.644;2023-02-20T10:37:48;16.60;;;7.50;;
45007;SDS011;30743;52.008;5.644;2023-02-20T10:40:23;10.65;;;5.85;;
45007;SDS011;30743;52.008;5.644;2023-02-20T10:42:57;11.93;;;5.65;;
45007;SDS011;30743;52.008;5.644;2023-02-20T10:48:14;11.35;;;6.22;;
45007;SDS011;30743;52.008;5.644;2023-02-20T10:50:43;16.92;;;5.95;;
45007;SDS011;30743;52.008;5.644;2023-02-20T10:55:51;12.63;;;6.43;;
45007;SDS011;30743;52.008;5.644;2023-02-20T10:58:25;14.77;;;6.15;;
45007;SDS011;30743;52.008;5.644;2023-02-20T11:01:01;11.73;;;6.10;;
45007;SDS011;30743;52.008;5.644;2023-02-20T11:03:42;12.93;;;6.47;;
45007;SDS011;30743;52.008;5.644;2023-02-20T11:06:22;9.15;;;5.72;;
45007;SDS011;30743;52.008;5.644;2023-02-20T11:09:04;12.07;;;6.20;;
45007;SDS011;30743;52.008;5.644;2023-02-20T11:11:31;12.30;;;6.03;;
45007;SDS011;30743;52.008;5.644;2023-02-20T11:14:00;15.25;;;6.38;;
45007;SDS011;30743;52.008;5.644;2023-02-20T11:16:34;11.45;;;5.57;;
45007;SDS011;30743;52.008;5.644;2023-02-20T11:19:11;11.25;;;5.63;;
45007;SDS011;30743;52.008;5.644;2023-02-20T11:21:48;9.68;;;5.65;;
45007;SDS011;30743;52.008;5.644;2023-02-20T11:24:28;12.23;;;5.45;;
45007;SDS011;30743;52.008;5.644;2023-02-20T11:26:57;9.80;;;5.78;;
45007;SDS011;30743;52.008;5.644;2023-02-20T11:29:25;12.40;;;5.70;;
45007;SDS011;30743;52.008;5.644;2023-02-20T11:32:13;8.07;;;6.32;;
45007;SDS011;30743;52.008;5.644;2023-02-20T11:37:12;11.60;;;5.50;;
45007;SDS011;30743;52.008;5.644;2023-02-20T11:39:44;11.90;;;5.35;;
45007;SDS011;30743;52.008;5.644;2023-02-20T11:42:15;12.10;;;5.55;;
45007;SDS011;30743;52.008;5.644;2023-02-20T11:44:42;9.75;;;5.75;;
45007;SDS011;30743;52.008;5.644;2023-02-20T11:47:09;7.47;;;4.38;;
45007;SDS011;30743;52.008;5.644;2023-02-20T11:49:35;12.02;;;4.72;;
45007;SDS011;30743;52.008;5.644;2023-02-20T11:55:17;6.65;;;4.43;;
45007;SDS011;30743;52.008;5.644;2023-02-20T11:57:45;9.27;;;4.22;;
45007;SDS011;30743;52.008;5.644;2023-02-20T12:05:48;9.07;;;4.30;;
45007;SDS011;30743;52.008;5.644;2023-02-20T12:08:27;8.27;;;4.03;;
45007;SDS011;30743;52.008;5.644;2023-02-20T12:11:03;7.60;;;3.72;;
45007;SDS011;30743;52.008;5.644;2023-02-20T12:13:31;7.38;;;3.70;;
45007;SDS011;30743;52.008;5.644;2023-02-20T12:19:07;9.75;;;3.80;;
45007;SDS011;30743;52.008;5.644;2023-02-20T12:27:17;5.07;;;3.10;;
45007;SDS011;30743;52.008;5.644;2023-02-20T12:32:38;8.57;;;3.53;;
45007;SDS011;30743;52.008;5.644;2023-02-20T12:38:06;6.80;;;3.85;;
45007;SDS011;30743;52.008;5.644;2023-02-20T12:49:50;7.68;;;3.65;;
45007;SDS011;30743;52.008;5.644;2023-02-20T12:52:26;6.30;;;3.30;;
45007;SDS011;30743;52.008;5.644;2023-02-20T12:55:17;8.00;;;4.35;;
45007;SDS011;30743;52.008;5.644;2023-02-20T12:58:01;9.35;;;3.47;;
45007;SDS011;30743;52.008;5.644;2023-02-20T13:00:42;5.93;;;3.42;;
45007;SDS011;30743;52.008;5.644;2023-02-20T13:03:22;6.15;;;3.45;;
45007;SDS011;30743;52.008;5.644;2023-02-20T13:05:57;7.40;;;2.97;;
45007;SDS011;30743;52.008;5.644;2023-02-20T13:08:27;6.82;;;3.40;;
45007;SDS011;30743;52.008;5.644;2023-02-20T13:10:58;6.45;;;3.20;;
45007;SDS011;30743;52.008;5.644;2023-02-20T13:13:37;10.15;;;3.55;;
45007;SDS011;30743;52.008;5.644;2023-02-20T13:17:06;5.90;;;3.10;;
45007;SDS011;30743;52.008;5.644;2023-02-20T13:19:16;9.65;;;3.05;;
45007;SDS011;30743;52.008;5.644;2023-02-20T13:21:46;10.90;;;3.50;;
45007;SDS011;30743;52.008;5.644;2023-02-20T13:29:19;8.48;;;3.85;;
45007;SDS011;30743;52.008;5.644;2023-02-20T13:31:49;7.15;;;3.30;;
45007;SDS011;30743;52.008;5.644;2023-02-20T13:36:44;6.55;;;3.10;;
45007;SDS011;30743;52.008;5.644;2023-02-20T13:47:15;6.55;;;3.22;;
45007;SDS011;30743;52.008;5.644;2023-02-20T13:49:56;5.72;;;3.20;;
45007;SDS011;30743;52.008;5.644;2023-02-20T14:03:10;8.27;;;3.47;;
45007;SDS011;30743;52.008;5.644;2023-02-20T14:05:37;8.90;;;3.63;;
45007;SDS011;30743;52.008;5.644;2023-02-20T14:08:04;9.80;;;3.65;;
45007;SDS011;30743;52.008;5.644;2023-02-20T14:15:33;9.15;;;3.88;;
45007;SDS011;30743;52.008;5.644;2023-02-20T14:18:26;7.22;;;3.78;;
45007;SDS011;30743;52.008;5.644;2023-02-20T14:21:13;5.25;;;3.50;;
45007;SDS011;30743;52.008;5.644;2023-02-20T14:23:42;8.05;;;3.58;;
45007;SDS011;30743;52.008;5.644;2023-02-20T14:26:19;6.57;;;3.45;;
45007;SDS011;30743;52.008;5.644;2023-02-20T14:28:55;13.52;;;4.47;;
45007;SDS011;30743;52.008;5.644;2023-02-20T14:31:25;5.68;;;3.85;;
45007;SDS011;30743;52.008;5.644;2023-02-20T14:34:05;8.15;;;3.85;;
45007;SDS011;30743;52.008;5.644;2023-02-20T14:36:43;7.30;;;4.13;;
45007;SDS011;30743;52.008;5.644;2023-02-20T14:40:07;9.48;;;4.30;;
45007;SDS011;30743;52.008;5.644;2023-02-20T14:42:32;7.35;;;4.35;;
45007;SDS011;30743;52.008;5.644;2023-02-20T14:45:04;7.72;;;4.43;;
45007;SDS011;30743;52.008;5.644;2023-02-20T14:47:33;6.47;;;3.50;;
45007;SDS011;30743;52.008;5.644;2023-02-20T14:50:22;8.43;;;3.80;;
45007;SDS011;30743;52.008;5.644;2023-02-20T14:55:36;8.38;;;3.88;;
45007;SDS011;30743;52.008;5.644;2023-02-20T14:58:05;6.97;;;4.28;;
45007;SDS011;30743;52.008;5.644;2023-02-20T15:00:36;6.97;;;4.78;;
45007;SDS011;30743;52.008;5.644;2023-02-20T15:03:07;6.20;;;4.10;;
45007;SDS011;30743;52.008;5.644;2023-02-20T15:05:39;9.25;;;4.80;;
45007;SDS011;30743;52.008;5.644;2023-02-20T15:08:28;6.45;;;4.32;;
45007;SDS011;30743;52.008;5.644;2023-02-20T15:11:04;6.82;;;4.50;;
45007;SDS011;30743;52.008;5.644;2023-02-20T15:13:42;8.98;;;4.85;;
45007;SDS011;30743;52.008;5.644;2023-02-20T15:18:36;8.30;;;4.93;;
45007;SDS011;30743;52.008;5.644;2023-02-20T15:21:04;8.00;;;4.20;;
45007;SDS011;30743;52.008;5.644;2023-02-20T15:23:37;8.98;;;4.20;;
45007;SDS011;30743;52.008;5.644;2023-02-20T15:31:54;7.82;;;4.90;;
45007;SDS011;30743;52.008;5.644;2023-02-20T15:34:25;11.27;;;5.53;;
45007;SDS011;30743;52.008;5.644;2023-02-20T15:36:52;7.50;;;5.18;;
45007;SDS011;30743;52.008;5.644;2023-02-20T15:39:18;9.52;;;4.97;;
45007;SDS011;30743;52.008;5.644;2023-02-20T15:41:45;7.75;;;4.47;;
45007;SDS011;30743;52.008;5.644;2023-02-20T15:44:12;9.82;;;4.72;;
45007;SDS011;30743;52.008;5.644;2023-02-20T15:46:37;8.05;;;4.85;;
45007;SDS011;30743;52.008;5.644;2023-02-20T15:49:03;7.43;;;4.38;;
45007;SDS011;30743;52.008;5.644;2023-02-20T15:51:29;9.98;;;6.72;;
45007;SDS011;30743;52.008;5.644;2023-02-20T15:53:59;8.13;;;4.32;;
45007;SDS011;30743;52.008;5.644;2023-02-20T15:56:26;8.85;;;5.15;;
45007;SDS011;30743;52.008;5.644;2023-02-20T15:58:57;7.50;;;5.18;;
45007;SDS011;30743;52.008;5.644;2023-02-20T16:01:26;10.48;;;5.50;;
45007;SDS011;30743;52.008;5.644;2023-02-20T16:03:51;9.75;;;5.68;;
45007;SDS011;30743;52.008;5.644;2023-02-20T16:06:17;10.25;;;6.32;;
45007;SDS011;30743;52.008;5.644;2023-02-20T16:08:44;9.70;;;5.28;;
45007;SDS011;30743;52.008;5.644;2023-02-20T16:11:10;9.82;;;5.25;;
45007;SDS011;30743;52.008;5.644;2023-02-20T16:13:37;8.80;;;4.90;;
45007;SDS011;30743;52.008;5.644;2023-02-20T16:16:28;8.57;;;4.65;;
45007;SDS011;30743;52.008;5.644;2023-02-20T16:18:50;8.35;;;4.70;;
45007;SDS011;30743;52.008;5.644;2023-02-20T16:21:18;7.15;;;4.80;;
45007;SDS011;30743;52.008;5.644;2023-02-20T16:23:44;7.57;;;4.57;;
45007;SDS011;30743;52.008;5.644;2023-02-20T16:26:13;10.85;;;4.55;;
45007;SDS011;30743;52.008;5.644;2023-02-20T16:28:40;7.20;;;4.78;;
45007;SDS011;30743;52.008;5.644;2023-02-20T16:31:08;9.75;;;4.90;;
45007;SDS011;30743;52.008;5.644;2023-02-20T16:33:36;9.30;;;5.03;;
45007;SDS011;30743;52.008;5.644;2023-02-20T16:36:02;9.55;;;4.25;;
45007;SDS011;30743;52.008;5.644;2023-02-20T16:38:27;8.70;;;4.75;;
45007;SDS011;30743;52.008;5.644;2023-02-20T16:40:53;8.18;;;4.63;;
45007;SDS011;30743;52.008;5.644;2023-02-20T16:43:21;8.90;;;4.88;;
45007;SDS011;30743;52.008;5.644;2023-02-20T16:45:49;8.93;;;4.90;;
45007;SDS011;30743;52.008;5.644;2023-02-20T16:48:16;11.40;;;4.43;;
45007;SDS011;30743;52.008;5.644;2023-02-20T16:50:43;10.77;;;4.85;;
45007;SDS011;30743;52.008;5.644;2023-02-20T16:53:11;11.18;;;5.32;;
45007;SDS011;30743;52.008;5.644;2023-02-20T16:55:37;11.18;;;5.00;;
45007;SDS011;30743;52.008;5.644;2023-02-20T16:58:06;8.32;;;4.93;;
45007;SDS011;30743;52.008;5.644;2023-02-20T17:00:35;10.02;;;5.25;;
45007;SDS011;30743;52.008;5.644;2023-02-20T17:03:05;7.55;;;5.05;;